sensor_id;sensor_type;location;lat;lon;timestamp;temperature;humidity
26541;DHT22;14206;50.202;10.948;2024-03-08T00:00:12;1.70;94.10
26541;DHT22;14206;50.202;10.948;2024-03-08T00:02:48;1.70;94.10
26541;DHT22;14206;50.202;10.948;2024-03-08T00:05:18;1.70;94.10
26541;DHT22;14206;50.202;10.948;2024-03-08T00:07:45;1.70;94.20
26541;DHT22;14206;50.202;10.948;2024-03-08T00:10:13;1.70;94.10
26541;DHT22;14206;50.202;10.948;2024-03-08T00:12:44;1.70;94.10
26541;DHT22;14206;50.202;10.948;2024-03-08T00:15:14;1.70;94.10
26541;DHT22;14206;50.202;10.948;2024-03-08T00:17:44;1.70;94.20
26541;DHT22;14206;50.202;10.948;2024-03-08T00:20:12;1.70;94.20
26541;DHT22;14206;50.202;10.948;2024-03-08T00:22:41;1.70;94.10
26541;DHT22;14206;50.202;10.948;2024-03-08T00:25:08;1.70;94.10
26541;DHT22;14206;50.202;10.948;2024-03-08T00:27:41;1.70;94.10
26541;DHT22;14206;50.202;10.948;2024-03-08T00:30:09;1.70;94.10
26541;DHT22;14206;50.202;10.948;2024-03-08T00:32:36;1.70;94.10
26541;DHT22;14206;50.202;10.948;2024-03-08T00:35:04;1.70;94.00
26541;DHT22;14206;50.202;10.948;2024-03-08T00:37:34;1.70;94.20
26541;DHT22;14206;50.202;10.948;2024-03-08T00:40:01;1.70;94.20
26541;DHT22;14206;50.202;10.948;2024-03-08T00:42:29;1.60;94.00
26541;DHT22;14206;50.202;10.948;2024-03-08T00:44:56;1.60;94.30
26541;DHT22;14206;50.202;10.948;2024-03-08T00:47:25;1.60;94.40
26541;DHT22;14206;50.202;10.948;2024-03-08T00:49:52;1.50;94.50
26541;DHT22;14206;50.202;10.948;2024-03-08T00:52:19;1.50;94.70
26541;DHT22;14206;50.202;10.948;2024-03-08T00:54:46;1.50;94.40
26541;DHT22;14206;50.202;10.948;2024-03-08T00:57:13;1.50;94.60
26541;DHT22;14206;50.202;10.948;2024-03-08T00:59:40;1.50;94.50
26541;DHT22;14206;50.202;10.948;2024-03-08T01:02:07;1.50;94.40
26541;DHT22;14206;50.202;10.948;2024-03-08T01:04:35;1.50;94.50
26541;DHT22;14206;50.202;10.948;2024-03-08T01:07:03;1.40;94.40
26541;DHT22;14206;50.202;10.948;2024-03-08T01:09:29;1.40;94.50
26541;DHT22;14206;50.202;10.948;2024-03-08T01:11:56;1.40;94.50
26541;DHT22;14206;50.202;10.948;2024-03-08T01:14:27;1.40;94.70
26541;DHT22;14206;50.202;10.948;2024-03-08T01:17:01;1.40;94.60
26541;DHT22;14206;50.202;10.948;2024-03-08T01:19:28;1.40;94.80
26541;DHT22;14206;50.202;10.948;2024-03-08T01:21:55;1.40;94.80
26541;DHT22;14206;50.202;10.948;2024-03-08T01:24:25;1.40;94.90
26541;DHT22;14206;50.202;10.948;2024-03-08T01:26:51;1.40;94.80
26541;DHT22;14206;50.202;10.948;2024-03-08T01:29:18;1.40;94.80
26541;DHT22;14206;50.202;10.948;2024-03-08T01:31:45;1.30;94.90
26541;DHT22;14206;50.202;10.948;2024-03-08T01:34:12;1.30;94.80
26541;DHT22;14206;50.202;10.948;2024-03-08T01:36:40;1.30;94.90
26541;DHT22;14206;50.202;10.948;2024-03-08T01:39:07;1.30;94.80
26541;DHT22;14206;50.202;10.948;2024-03-08T01:41:35;1.30;94.90
26541;DHT22;14206;50.202;10.948;2024-03-08T01:44:03;1.30;95.00
26541;DHT22;14206;50.202;10.948;2024-03-08T01:46:31;1.20;95.10
26541;DHT22;14206;50.202;10.948;2024-03-08T01:48:58;1.20;95.20
26541;DHT22;14206;50.202;10.948;2024-03-08T01:51:28;1.20;95.10
26541;DHT22;14206;50.202;10.948;2024-03-08T01:53:56;1.20;95.30
26541;DHT22;14206;50.202;10.948;2024-03-08T01:56:26;1.10;95.30
26541;DHT22;14206;50.202;10.948;2024-03-08T01:58:54;1.10;95.40
26541;DHT22;14206;50.202;10.948;2024-03-08T02:01:21;1.10;95.50
26541;DHT22;14206;50.202;10.948;2024-03-08T02:03:49;1.10;95.70
26541;DHT22;14206;50.202;10.948;2024-03-08T02:06:16;1.10;95.70
26541;DHT22;14206;50.202;10.948;2024-03-08T02:08:44;1.00;95.80
26541;DHT22;14206;50.202;10.948;2024-03-08T02:11:12;1.00;96.10
26541;DHT22;14206;50.202;10.948;2024-03-08T02:13:39;1.00;96.10
26541;DHT22;14206;50.202;10.948;2024-03-08T02:16:06;1.00;96.20
26541;DHT22;14206;50.202;10.948;2024-03-08T02:18:35;1.00;96.30
26541;DHT22;14206;50.202;10.948;2024-03-08T02:21:04;1.00;96.30
26541;DHT22;14206;50.202;10.948;2024-03-08T02:23:32;1.00;96.30
26541;DHT22;14206;50.202;10.948;2024-03-08T02:26:00;1.00;96.30
26541;DHT22;14206;50.202;10.948;2024-03-08T02:28:27;0.90;96.20
26541;DHT22;14206;50.202;10.948;2024-03-08T02:30:56;0.90;96.30
26541;DHT22;14206;50.202;10.948;2024-03-08T02:33:26;0.90;96.50
26541;DHT22;14206;50.202;10.948;2024-03-08T02:35:54;0.90;96.60
26541;DHT22;14206;50.202;10.948;2024-03-08T02:38:23;0.90;96.60
26541;DHT22;14206;50.202;10.948;2024-03-08T02:40:53;0.90;96.60
26541;DHT22;14206;50.202;10.948;2024-03-08T02:43:21;0.90;96.60
26541;DHT22;14206;50.202;10.948;2024-03-08T02:45:52;0.90;96.60
26541;DHT22;14206;50.202;10.948;2024-03-08T02:48:21;0.90;96.60
26541;DHT22;14206;50.202;10.948;2024-03-08T02:50:49;0.90;96.60
26541;DHT22;14206;50.202;10.948;2024-03-08T02:53:18;0.90;96.60
26541;DHT22;14206;50.202;10.948;2024-03-08T02:55:48;0.90;96.60
26541;DHT22;14206;50.202;10.948;2024-03-08T02:58:16;0.90;96.60
26541;DHT22;14206;50.202;10.948;2024-03-08T03:00:45;1.00;96.60
26541;DHT22;14206;50.202;10.948;2024-03-08T03:03:12;1.00;96.60
26541;DHT22;14206;50.202;10.948;2024-03-08T03:05:39;1.00;96.60
26541;DHT22;14206;50.202;10.948;2024-03-08T03:08:13;1.00;96.60
26541;DHT22;14206;50.202;10.948;2024-03-08T03:10:40;1.00;96.60
26541;DHT22;14206;50.202;10.948;2024-03-08T03:13:06;1.00;96.60
26541;DHT22;14206;50.202;10.948;2024-03-08T03:15:35;1.00;96.60
26541;DHT22;14206;50.202;10.948;2024-03-08T03:18:01;1.00;96.60
26541;DHT22;14206;50.202;10.948;2024-03-08T03:20:29;1.00;96.60
26541;DHT22;14206;50.202;10.948;2024-03-08T03:23:07;1.00;96.60
26541;DHT22;14206;50.202;10.948;2024-03-08T03:25:35;1.00;96.60
26541;DHT22;14206;50.202;10.948;2024-03-08T03:28:03;0.90;96.50
26541;DHT22;14206;50.202;10.948;2024-03-08T03:30:31;0.90;96.50
26541;DHT22;14206;50.202;10.948;2024-03-08T03:33:01;0.90;96.10
26541;DHT22;14206;50.202;10.948;2024-03-08T03:35:34;0.90;95.70
26541;DHT22;14206;50.202;10.948;2024-03-08T03:38:03;0.80;95.70
26541;DHT22;14206;50.202;10.948;2024-03-08T03:40:39;0.80;96.30
26541;DHT22;14206;50.202;10.948;2024-03-08T03:43:07;0.70;96.60
26541;DHT22;14206;50.202;10.948;2024-03-08T03:45:36;0.70;96.60
26541;DHT22;14206;50.202;10.948;2024-03-08T03:48:06;0.60;96.60
26541;DHT22;14206;50.202;10.948;2024-03-08T03:50:36;0.60;96.60
26541;DHT22;14206;50.202;10.948;2024-03-08T03:53:04;0.60;96.60
26541;DHT22;14206;50.202;10.948;2024-03-08T03:55:31;0.60;96.60
26541;DHT22;14206;50.202;10.948;2024-03-08T03:57:58;0.60;96.60
26541;DHT22;14206;50.202;10.948;2024-03-08T04:00:28;0.70;96.60
26541;DHT22;14206;50.202;10.948;2024-03-08T04:02:55;0.70;96.60
26541;DHT22;14206;50.202;10.948;2024-03-08T04:05:25;0.70;96.60
26541;DHT22;14206;50.202;10.948;2024-03-08T04:07:52;0.80;96.60
26541;DHT22;14206;50.202;10.948;2024-03-08T04:10:19;0.80;96.60
26541;DHT22;14206;50.202;10.948;2024-03-08T04:12:46;0.80;96.60
26541;DHT22;14206;50.202;10.948;2024-03-08T04:15:14;0.90;96.60
26541;DHT22;14206;50.202;10.948;2024-03-08T04:17:40;0.80;96.60
26541;DHT22;14206;50.202;10.948;2024-03-08T04:20:08;0.90;96.60
26541;DHT22;14206;50.202;10.948;2024-03-08T04:22:37;0.90;96.60
26541;DHT22;14206;50.202;10.948;2024-03-08T04:25:04;0.90;96.60
26541;DHT22;14206;50.202;10.948;2024-03-08T04:27:32;0.90;96.60
26541;DHT22;14206;50.202;10.948;2024-03-08T04:30:00;0.90;96.60
26541;DHT22;14206;50.202;10.948;2024-03-08T04:32:27;0.80;96.60
26541;DHT22;14206;50.202;10.948;2024-03-08T04:34:57;0.80;96.60
26541;DHT22;14206;50.202;10.948;2024-03-08T04:37:24;0.80;96.60
26541;DHT22;14206;50.202;10.948;2024-03-08T04:39:51;0.80;96.60
26541;DHT22;14206;50.202;10.948;2024-03-08T04:42:18;0.80;96.60
26541;DHT22;14206;50.202;10.948;2024-03-08T04:44:45;0.80;96.60
26541;DHT22;14206;50.202;10.948;2024-03-08T04:47:12;0.70;96.60
26541;DHT22;14206;50.202;10.948;2024-03-08T04:49:39;0.70;96.60
26541;DHT22;14206;50.202;10.948;2024-03-08T04:52:06;0.70;96.60
26541;DHT22;14206;50.202;10.948;2024-03-08T04:54:34;0.70;96.60
26541;DHT22;14206;50.202;10.948;2024-03-08T04:57:01;0.70;96.60
26541;DHT22;14206;50.202;10.948;2024-03-08T04:59:32;0.70;96.60
26541;DHT22;14206;50.202;10.948;2024-03-08T05:01:59;0.70;96.60
26541;DHT22;14206;50.202;10.948;2024-03-08T05:04:27;0.70;96.60
26541;DHT22;14206;50.202;10.948;2024-03-08T05:06:55;0.70;96.60
26541;DHT22;14206;50.202;10.948;2024-03-08T05:09:22;0.70;96.60
26541;DHT22;14206;50.202;10.948;2024-03-08T05:11:50;0.70;96.60
26541;DHT22;14206;50.202;10.948;2024-03-08T05:14:17;0.60;96.60
26541;DHT22;14206;50.202;10.948;2024-03-08T05:16:47;0.60;96.60
26541;DHT22;14206;50.202;10.948;2024-03-08T05:19:19;0.60;96.60
26541;DHT22;14206;50.202;10.948;2024-03-08T05:21:47;0.60;96.60
26541;DHT22;14206;50.202;10.948;2024-03-08T05:24:15;0.60;96.60
26541;DHT22;14206;50.202;10.948;2024-03-08T05:26:43;0.60;96.60
26541;DHT22;14206;50.202;10.948;2024-03-08T05:29:11;0.70;96.60
26541;DHT22;14206;50.202;10.948;2024-03-08T05:31:50;0.70;96.60
26541;DHT22;14206;50.202;10.948;2024-03-08T05:34:19;0.70;96.60
26541;DHT22;14206;50.202;10.948;2024-03-08T05:36:49;0.70;96.60
26541;DHT22;14206;50.202;10.948;2024-03-08T05:39:18;0.70;96.60
26541;DHT22;14206;50.202;10.948;2024-03-08T05:41:46;0.80;96.60
26541;DHT22;14206;50.202;10.948;2024-03-08T05:44:14;0.80;96.60
26541;DHT22;14206;50.202;10.948;2024-03-08T05:46:40;0.80;96.60
26541;DHT22;14206;50.202;10.948;2024-03-08T05:49:07;0.80;96.60
26541;DHT22;14206;50.202;10.948;2024-03-08T05:51:38;0.80;96.60
26541;DHT22;14206;50.202;10.948;2024-03-08T05:54:11;0.90;96.60
26541;DHT22;14206;50.202;10.948;2024-03-08T05:56:42;0.90;96.60
26541;DHT22;14206;50.202;10.948;2024-03-08T05:59:11;0.90;96.60
26541;DHT22;14206;50.202;10.948;2024-03-08T06:01:38;1.00;96.60
26541;DHT22;14206;50.202;10.948;2024-03-08T06:04:07;1.00;96.60
26541;DHT22;14206;50.202;10.948;2024-03-08T06:06:34;1.00;96.60
26541;DHT22;14206;50.202;10.948;2024-03-08T06:09:04;1.10;96.60
26541;DHT22;14206;50.202;10.948;2024-03-08T06:11:44;1.10;96.60
26541;DHT22;14206;50.202;10.948;2024-03-08T06:14:11;1.10;96.60
26541;DHT22;14206;50.202;10.948;2024-03-08T06:16:38;1.20;96.50
26541;DHT22;14206;50.202;10.948;2024-03-08T06:19:05;1.20;96.60
26541;DHT22;14206;50.202;10.948;2024-03-08T06:21:32;1.20;96.60
26541;DHT22;14206;50.202;10.948;2024-03-08T06:23:59;1.30;96.50
26541;DHT22;14206;50.202;10.948;2024-03-08T06:26:27;1.30;96.60
26541;DHT22;14206;50.202;10.948;2024-03-08T06:28:58;1.30;96.50
26541;DHT22;14206;50.202;10.948;2024-03-08T06:31:25;1.40;96.40
26541;DHT22;14206;50.202;10.948;2024-03-08T06:33:53;1.50;96.00
26541;DHT22;14206;50.202;10.948;2024-03-08T06:36:22;1.60;95.90
26541;DHT22;14206;50.202;10.948;2024-03-08T06:38:50;1.60;95.70
26541;DHT22;14206;50.202;10.948;2024-03-08T06:41:17;1.70;95.70
26541;DHT22;14206;50.202;10.948;2024-03-08T06:43:47;1.80;95.50
26541;DHT22;14206;50.202;10.948;2024-03-08T06:46:18;1.80;95.30
26541;DHT22;14206;50.202;10.948;2024-03-08T06:48:47;1.90;94.90
26541;DHT22;14206;50.202;10.948;2024-03-08T06:51:17;2.00;95.00
26541;DHT22;14206;50.202;10.948;2024-03-08T06:53:44;2.10;94.90
26541;DHT22;14206;50.202;10.948;2024-03-08T06:56:11;2.10;94.50
26541;DHT22;14206;50.202;10.948;2024-03-08T06:58:38;2.20;94.70
26541;DHT22;14206;50.202;10.948;2024-03-08T07:01:05;2.30;94.50
26541;DHT22;14206;50.202;10.948;2024-03-08T07:03:34;2.40;94.50
26541;DHT22;14206;50.202;10.948;2024-03-08T07:06:01;2.50;93.90
26541;DHT22;14206;50.202;10.948;2024-03-08T07:08:30;2.70;93.00
26541;DHT22;14206;50.202;10.948;2024-03-08T07:11:06;2.70;93.00
26541;DHT22;14206;50.202;10.948;2024-03-08T07:13:34;2.80;92.80
26541;DHT22;14206;50.202;10.948;2024-03-08T07:16:00;2.80;92.40
26541;DHT22;14206;50.202;10.948;2024-03-08T07:18:28;2.90;92.30
26541;DHT22;14206;50.202;10.948;2024-03-08T07:20:57;3.00;92.00
26541;DHT22;14206;50.202;10.948;2024-03-08T07:23:23;3.10;91.30
26541;DHT22;14206;50.202;10.948;2024-03-08T07:26:09;3.20;91.60
26541;DHT22;14206;50.202;10.948;2024-03-08T07:28:36;3.30;91.50
26541;DHT22;14206;50.202;10.948;2024-03-08T07:31:03;3.40;90.90
26541;DHT22;14206;50.202;10.948;2024-03-08T07:33:48;3.60;90.80
26541;DHT22;14206;50.202;10.948;2024-03-08T07:36:17;3.70;90.80
26541;DHT22;14206;50.202;10.948;2024-03-08T07:38:44;3.80;90.60
26541;DHT22;14206;50.202;10.948;2024-03-08T07:41:15;3.90;90.00
26541;DHT22;14206;50.202;10.948;2024-03-08T07:43:42;4.10;89.70
26541;DHT22;14206;50.202;10.948;2024-03-08T07:46:12;4.20;89.70
26541;DHT22;14206;50.202;10.948;2024-03-08T07:48:40;4.40;89.10
26541;DHT22;14206;50.202;10.948;2024-03-08T07:51:07;4.60;88.60
26541;DHT22;14206;50.202;10.948;2024-03-08T07:53:36;4.70;87.60
26541;DHT22;14206;50.202;10.948;2024-03-08T07:56:05;5.00;87.50
26541;DHT22;14206;50.202;10.948;2024-03-08T07:58:32;6.00;86.20
26541;DHT22;14206;50.202;10.948;2024-03-08T08:01:01;7.20;82.00
26541;DHT22;14206;50.202;10.948;2024-03-08T08:03:28;8.20;79.50
26541;DHT22;14206;50.202;10.948;2024-03-08T08:05:55;9.10;76.40
26541;DHT22;14206;50.202;10.948;2024-03-08T08:08:22;10.00;74.60
26541;DHT22;14206;50.202;10.948;2024-03-08T08:10:48;10.80;72.60
26541;DHT22;14206;50.202;10.948;2024-03-08T08:13:16;11.40;70.30
26541;DHT22;14206;50.202;10.948;2024-03-08T08:15:44;11.90;69.00
26541;DHT22;14206;50.202;10.948;2024-03-08T08:18:12;12.50;68.50
26541;DHT22;14206;50.202;10.948;2024-03-08T08:20:41;13.00;65.40
26541;DHT22;14206;50.202;10.948;2024-03-08T08:23:07;13.40;65.60
26541;DHT22;14206;50.202;10.948;2024-03-08T08:25:35;13.50;64.40
26541;DHT22;14206;50.202;10.948;2024-03-08T08:28:02;13.70;64.40
26541;DHT22;14206;50.202;10.948;2024-03-08T08:30:30;13.70;62.90
26541;DHT22;14206;50.202;10.948;2024-03-08T08:32:59;13.00;62.60
26541;DHT22;14206;50.202;10.948;2024-03-08T08:35:28;12.20;63.10
26541;DHT22;14206;50.202;10.948;2024-03-08T08:37:55;11.60;65.00
26541;DHT22;14206;50.202;10.948;2024-03-08T08:40:22;11.20;66.10
26541;DHT22;14206;50.202;10.948;2024-03-08T08:42:50;10.90;66.80
26541;DHT22;14206;50.202;10.948;2024-03-08T08:45:17;10.60;67.30
26541;DHT22;14206;50.202;10.948;2024-03-08T08:47:54;10.30;67.90
26541;DHT22;14206;50.202;10.948;2024-03-08T08:50:22;10.10;68.90
26541;DHT22;14206;50.202;10.948;2024-03-08T08:52:50;10.10;68.30
26541;DHT22;14206;50.202;10.948;2024-03-08T08:55:17;10.30;69.40
26541;DHT22;14206;50.202;10.948;2024-03-08T08:57:47;10.30;68.70
26541;DHT22;14206;50.202;10.948;2024-03-08T09:00:16;10.20;69.80
26541;DHT22;14206;50.202;10.948;2024-03-08T09:02:43;10.20;68.80
26541;DHT22;14206;50.202;10.948;2024-03-08T09:05:10;10.20;70.10
26541;DHT22;14206;50.202;10.948;2024-03-08T09:07:44;10.30;69.20
26541;DHT22;14206;50.202;10.948;2024-03-08T09:10:11;10.20;68.30
26541;DHT22;14206;50.202;10.948;2024-03-08T09:12:44;10.20;69.20
26541;DHT22;14206;50.202;10.948;2024-03-08T09:15:11;10.30;68.70
26541;DHT22;14206;50.202;10.948;2024-03-08T09:17:40;10.30;68.50
26541;DHT22;14206;50.202;10.948;2024-03-08T09:20:08;10.40;68.60
26541;DHT22;14206;50.202;10.948;2024-03-08T09:22:44;10.50;68.10
26541;DHT22;14206;50.202;10.948;2024-03-08T09:25:13;10.70;68.10
26541;DHT22;14206;50.202;10.948;2024-03-08T09:27:39;10.80;68.30
26541;DHT22;14206;50.202;10.948;2024-03-08T09:30:08;11.00;67.20
26541;DHT22;14206;50.202;10.948;2024-03-08T09:32:38;11.00;67.40
26541;DHT22;14206;50.202;10.948;2024-03-08T09:35:05;11.00;67.70
26541;DHT22;14206;50.202;10.948;2024-03-08T09:37:35;11.20;66.20
26541;DHT22;14206;50.202;10.948;2024-03-08T09:40:02;11.40;65.80
26541;DHT22;14206;50.202;10.948;2024-03-08T09:42:31;11.40;65.30
26541;DHT22;14206;50.202;10.948;2024-03-08T09:44:58;11.50;64.90
26541;DHT22;14206;50.202;10.948;2024-03-08T09:47:28;11.70;64.20
26541;DHT22;14206;50.202;10.948;2024-03-08T09:50:00;12.10;63.50
26541;DHT22;14206;50.202;10.948;2024-03-08T09:52:29;12.60;62.60
26541;DHT22;14206;50.202;10.948;2024-03-08T09:54:57;13.30;62.10
26541;DHT22;14206;50.202;10.948;2024-03-08T09:57:25;13.90;60.70
26541;DHT22;14206;50.202;10.948;2024-03-08T09:59:52;14.20;59.40
26541;DHT22;14206;50.202;10.948;2024-03-08T10:02:19;14.50;60.50
26541;DHT22;14206;50.202;10.948;2024-03-08T10:04:47;14.60;59.50
26541;DHT22;14206;50.202;10.948;2024-03-08T10:07:15;14.60;58.90
26541;DHT22;14206;50.202;10.948;2024-03-08T10:09:42;14.70;58.70
26541;DHT22;14206;50.202;10.948;2024-03-08T10:12:16;14.60;58.40
26541;DHT22;14206;50.202;10.948;2024-03-08T10:14:43;14.40;58.60
26541;DHT22;14206;50.202;10.948;2024-03-08T10:17:11;14.30;59.40
26541;DHT22;14206;50.202;10.948;2024-03-08T10:19:37;14.30;59.00
26541;DHT22;14206;50.202;10.948;2024-03-08T10:22:05;14.30;59.10
26541;DHT22;14206;50.202;10.948;2024-03-08T10:24:33;14.50;58.90
26541;DHT22;14206;50.202;10.948;2024-03-08T10:27:04;14.40;59.00
26541;DHT22;14206;50.202;10.948;2024-03-08T10:29:34;14.20;58.60
26541;DHT22;14206;50.202;10.948;2024-03-08T10:32:02;14.00;59.70
26541;DHT22;14206;50.202;10.948;2024-03-08T10:34:29;13.80;60.00
26541;DHT22;14206;50.202;10.948;2024-03-08T10:37:04;13.70;60.70
26541;DHT22;14206;50.202;10.948;2024-03-08T10:39:35;13.90;60.10
26541;DHT22;14206;50.202;10.948;2024-03-08T10:42:05;13.80;59.90
26541;DHT22;14206;50.202;10.948;2024-03-08T10:44:49;13.80;60.90
26541;DHT22;14206;50.202;10.948;2024-03-08T10:47:30;13.90;61.00
26541;DHT22;14206;50.202;10.948;2024-03-08T10:52:33;14.00;59.90
26541;DHT22;14206;50.202;10.948;2024-03-08T10:55:02;14.00;59.70
26541;DHT22;14206;50.202;10.948;2024-03-08T10:57:29;14.10;59.50
26541;DHT22;14206;50.202;10.948;2024-03-08T10:59:56;14.10;59.50
26541;DHT22;14206;50.202;10.948;2024-03-08T11:02:26;14.20;59.80
26541;DHT22;14206;50.202;10.948;2024-03-08T11:04:54;14.30;58.90
26541;DHT22;14206;50.202;10.948;2024-03-08T11:07:25;14.50;58.70
26541;DHT22;14206;50.202;10.948;2024-03-08T11:09:55;14.80;59.80
26541;DHT22;14206;50.202;10.948;2024-03-08T11:15:22;15.60;56.90
26541;DHT22;14206;50.202;10.948;2024-03-08T11:17:52;15.70;56.30
26541;DHT22;14206;50.202;10.948;2024-03-08T11:20:23;15.70;56.30
26541;DHT22;14206;50.202;10.948;2024-03-08T11:22:53;15.40;56.30
26541;DHT22;14206;50.202;10.948;2024-03-08T11:25:39;15.10;57.50
26541;DHT22;14206;50.202;10.948;2024-03-08T11:28:20;14.80;58.10
26541;DHT22;14206;50.202;10.948;2024-03-08T11:33:30;14.50;58.50
26541;DHT22;14206;50.202;10.948;2024-03-08T11:38:41;15.40;57.10
26541;DHT22;14206;50.202;10.948;2024-03-08T11:41:08;16.00;55.90
26541;DHT22;14206;50.202;10.948;2024-03-08T11:43:35;16.50;55.80
26541;DHT22;14206;50.202;10.948;2024-03-08T11:46:12;17.00;55.80
26541;DHT22;14206;50.202;10.948;2024-03-08T11:48:40;17.50;53.90
26541;DHT22;14206;50.202;10.948;2024-03-08T11:51:14;17.90;53.60
26541;DHT22;14206;50.202;10.948;2024-03-08T11:53:42;18.40;52.00
26541;DHT22;14206;50.202;10.948;2024-03-08T11:56:14;18.50;52.30
26541;DHT22;14206;50.202;10.948;2024-03-08T11:58:53;18.50;51.50
26541;DHT22;14206;50.202;10.948;2024-03-08T12:01:20;18.60;51.30
26541;DHT22;14206;50.202;10.948;2024-03-08T12:03:55;18.50;51.10
26541;DHT22;14206;50.202;10.948;2024-03-08T12:06:26;18.50;51.30
26541;DHT22;14206;50.202;10.948;2024-03-08T12:08:53;18.50;51.10
26541;DHT22;14206;50.202;10.948;2024-03-08T12:11:20;18.30;51.20
26541;DHT22;14206;50.202;10.948;2024-03-08T12:13:51;17.70;50.90
26541;DHT22;14206;50.202;10.948;2024-03-08T12:16:18;16.90;52.70
26541;DHT22;14206;50.202;10.948;2024-03-08T12:18:46;16.10;54.30
26541;DHT22;14206;50.202;10.948;2024-03-08T12:21:13;15.30;55.30
26541;DHT22;14206;50.202;10.948;2024-03-08T12:23:44;14.70;55.40
26541;DHT22;14206;50.202;10.948;2024-03-08T12:26:12;14.20;56.40
26541;DHT22;14206;50.202;10.948;2024-03-08T12:28:41;13.80;57.40
26541;DHT22;14206;50.202;10.948;2024-03-08T12:31:13;13.40;57.70
26541;DHT22;14206;50.202;10.948;2024-03-08T12:33:54;13.10;58.10
26541;DHT22;14206;50.202;10.948;2024-03-08T12:36:23;12.90;58.70
26541;DHT22;14206;50.202;10.948;2024-03-08T12:38:52;12.70;59.10
26541;DHT22;14206;50.202;10.948;2024-03-08T12:41:21;12.60;59.80
26541;DHT22;14206;50.202;10.948;2024-03-08T12:43:48;12.50;60.40
26541;DHT22;14206;50.202;10.948;2024-03-08T12:46:20;12.50;59.80
26541;DHT22;14206;50.202;10.948;2024-03-08T12:48:48;12.30;59.70
26541;DHT22;14206;50.202;10.948;2024-03-08T12:51:16;12.20;60.40
26541;DHT22;14206;50.202;10.948;2024-03-08T12:53:45;12.20;61.40
26541;DHT22;14206;50.202;10.948;2024-03-08T12:56:28;12.20;61.40
26541;DHT22;14206;50.202;10.948;2024-03-08T12:58:55;12.10;61.70
26541;DHT22;14206;50.202;10.948;2024-03-08T13:01:23;12.20;62.10
26541;DHT22;14206;50.202;10.948;2024-03-08T13:03:50;12.20;61.00
26541;DHT22;14206;50.202;10.948;2024-03-08T13:06:17;12.10;61.10
26541;DHT22;14206;50.202;10.948;2024-03-08T13:08:44;12.00;62.20
26541;DHT22;14206;50.202;10.948;2024-03-08T13:11:11;12.00;61.90
26541;DHT22;14206;50.202;10.948;2024-03-08T13:13:38;12.00;61.60
26541;DHT22;14206;50.202;10.948;2024-03-08T13:16:07;12.00;62.20
26541;DHT22;14206;50.202;10.948;2024-03-08T13:18:37;12.00;62.00
26541;DHT22;14206;50.202;10.948;2024-03-08T13:21:04;12.00;61.80
26541;DHT22;14206;50.202;10.948;2024-03-08T13:23:34;12.00;61.20
26541;DHT22;14206;50.202;10.948;2024-03-08T13:26:13;11.90;62.10
26541;DHT22;14206;50.202;10.948;2024-03-08T13:28:45;11.90;61.80
26541;DHT22;14206;50.202;10.948;2024-03-08T13:31:12;11.90;62.50
26541;DHT22;14206;50.202;10.948;2024-03-08T13:33:41;11.90;62.80
26541;DHT22;14206;50.202;10.948;2024-03-08T13:36:09;11.90;62.10
26541;DHT22;14206;50.202;10.948;2024-03-08T13:41:11;11.90;63.40
26541;DHT22;14206;50.202;10.948;2024-03-08T13:43:47;12.00;62.90
26541;DHT22;14206;50.202;10.948;2024-03-08T13:46:17;12.10;62.30
26541;DHT22;14206;50.202;10.948;2024-03-08T13:48:44;12.10;62.20
26541;DHT22;14206;50.202;10.948;2024-03-08T13:51:11;12.10;61.90
26541;DHT22;14206;50.202;10.948;2024-03-08T13:53:41;12.10;61.60
26541;DHT22;14206;50.202;10.948;2024-03-08T13:56:08;12.10;61.90
26541;DHT22;14206;50.202;10.948;2024-03-08T13:58:37;12.20;62.00
26541;DHT22;14206;50.202;10.948;2024-03-08T14:01:06;12.10;61.60
26541;DHT22;14206;50.202;10.948;2024-03-08T14:03:38;12.30;61.60
26541;DHT22;14206;50.202;10.948;2024-03-08T14:06:09;12.60;60.90
26541;DHT22;14206;50.202;10.948;2024-03-08T14:08:49;12.90;59.60
26541;DHT22;14206;50.202;10.948;2024-03-08T14:11:16;12.80;59.10
26541;DHT22;14206;50.202;10.948;2024-03-08T14:13:52;12.60;59.80
26541;DHT22;14206;50.202;10.948;2024-03-08T14:16:20;12.40;60.50
26541;DHT22;14206;50.202;10.948;2024-03-08T14:18:47;12.30;59.90
26541;DHT22;14206;50.202;10.948;2024-03-08T14:21:20;12.10;59.70
26541;DHT22;14206;50.202;10.948;2024-03-08T14:23:47;11.90;59.30
26541;DHT22;14206;50.202;10.948;2024-03-08T14:26:15;11.90;59.30
26541;DHT22;14206;50.202;10.948;2024-03-08T14:28:42;11.80;59.90
26541;DHT22;14206;50.202;10.948;2024-03-08T14:31:09;11.80;60.20
26541;DHT22;14206;50.202;10.948;2024-03-08T14:33:38;11.70;61.20
26541;DHT22;14206;50.202;10.948;2024-03-08T14:36:05;11.70;60.90
26541;DHT22;14206;50.202;10.948;2024-03-08T14:38:33;11.60;61.60
26541;DHT22;14206;50.202;10.948;2024-03-08T14:41:01;11.60;61.70
26541;DHT22;14206;50.202;10.948;2024-03-08T14:43:31;11.60;61.90
26541;DHT22;14206;50.202;10.948;2024-03-08T14:45:58;11.60;61.90
26541;DHT22;14206;50.202;10.948;2024-03-08T14:48:25;11.60;62.50
26541;DHT22;14206;50.202;10.948;2024-03-08T14:50:52;11.60;62.40
26541;DHT22;14206;50.202;10.948;2024-03-08T14:53:19;11.50;60.50
26541;DHT22;14206;50.202;10.948;2024-03-08T14:55:46;11.50;60.30
26541;DHT22;14206;50.202;10.948;2024-03-08T14:58:14;11.50;60.80
26541;DHT22;14206;50.202;10.948;2024-03-08T15:00:42;11.40;60.70
26541;DHT22;14206;50.202;10.948;2024-03-08T15:03:10;11.40;61.30
26541;DHT22;14206;50.202;10.948;2024-03-08T15:05:40;11.40;61.30
26541;DHT22;14206;50.202;10.948;2024-03-08T15:08:08;11.30;61.60
26541;DHT22;14206;50.202;10.948;2024-03-08T15:10:47;11.30;62.10
26541;DHT22;14206;50.202;10.948;2024-03-08T15:13:25;11.30;60.80
26541;DHT22;14206;50.202;10.948;2024-03-08T15:16:10;11.30;61.00
26541;DHT22;14206;50.202;10.948;2024-03-08T15:18:44;11.30;60.90
26541;DHT22;14206;50.202;10.948;2024-03-08T15:21:18;11.20;61.30
26541;DHT22;14206;50.202;10.948;2024-03-08T15:23:46;11.20;61.10
26541;DHT22;14206;50.202;10.948;2024-03-08T15:26:21;11.20;61.70
26541;DHT22;14206;50.202;10.948;2024-03-08T15:28:47;11.20;62.00
26541;DHT22;14206;50.202;10.948;2024-03-08T15:31:22;11.20;62.30
26541;DHT22;14206;50.202;10.948;2024-03-08T15:33:52;11.20;62.00
26541;DHT22;14206;50.202;10.948;2024-03-08T15:36:27;11.20;62.00
26541;DHT22;14206;50.202;10.948;2024-03-08T15:39:00;11.20;61.20
26541;DHT22;14206;50.202;10.948;2024-03-08T15:41:27;11.10;61.40
26541;DHT22;14206;50.202;10.948;2024-03-08T15:43:56;11.10;61.90
26541;DHT22;14206;50.202;10.948;2024-03-08T15:46:23;11.00;62.30